Chaoyang Airport


Codes: ZYCY/CHG
Name: Chaoyang Airport
City: Chaoyang
Country: China
Elevation: 0 ft.

Photos at Chaoyang Airport


   Photos courtesy of SpottingLog. You can add your own sightings and photos by signing up for a free trial today.



No photos found.

Weather at Chaoyang Airport


Time (UTC)DescriptionTempratureWindCloud coverageVisibilityPressureHumidity
16-Jun-2024 03:00Clear Sky27°C11 mph, NW1%10000m1005hPa29%
16-Jun-2024 06:00Clear Sky31°C11 mph, W2%10000m1003hPa22%
16-Jun-2024 09:00Scattered Clouds34°C7 mph, W33%10000m1000hPa16%
16-Jun-2024 12:00Broken Clouds27°C7 mph, SW54%10000m1000hPa30%
16-Jun-2024 15:00Clear Sky24°C7 mph, SW4%10000m1001hPa35%
16-Jun-2024 18:00Few Clouds22°C7 mph, SW15%10000m1001hPa38%
16-Jun-2024 21:00Broken Clouds21°C7 mph, SW51%10000m1001hPa41%
17-Jun-2024 00:00Scattered Clouds29°C4 mph, NW28%10000m1002hPa25%
17-Jun-2024 03:00Clear Sky36°C2 mph, NW0%10000m1001hPa16%
17-Jun-2024 06:00Clear Sky38°C11 mph, NW1%10000m999hPa14%
17-Jun-2024 09:00Clear Sky38°C7 mph, W2%10000m997hPa14%
17-Jun-2024 12:00Light Rain25°C4 mph, SE49%10000m1001hPa52%
17-Jun-2024 15:00Light Rain25°C7 mph, SW81%10000m1001hPa48%
17-Jun-2024 18:00Overcast Clouds24°C2 mph, NW85%10000m1001hPa49%
17-Jun-2024 21:00Overcast Clouds23°C4 mph, SW87%10000m1001hPa50%
18-Jun-2024 00:00Broken Clouds29°C2 mph, SW67%10000m1002hPa35%
18-Jun-2024 03:00Broken Clouds35°C4 mph, SW61%10000m1000hPa23%
18-Jun-2024 06:00Scattered Clouds39°C7 mph, SW39%10000m998hPa16%
18-Jun-2024 09:00Scattered Clouds31°C11 mph, SE32%10000m998hPa31%
18-Jun-2024 12:00Scattered Clouds30°C9 mph, S42%10000m999hPa35%
18-Jun-2024 15:00Scattered Clouds28°C4 mph, S44%10000m1001hPa42%
18-Jun-2024 18:00Broken Clouds25°C4 mph, SW53%10000m1001hPa44%
18-Jun-2024 21:00Scattered Clouds24°C4 mph, SW36%10000m1002hPa46%
19-Jun-2024 00:00Scattered Clouds31°C11 mph, SW31%10000m1002hPa32%
19-Jun-2024 03:00Overcast Clouds36°C13 mph, SW91%10000m1002hPa24%
19-Jun-2024 06:00Broken Clouds37°C20 mph, S79%10000m1000hPa22%
19-Jun-2024 09:00Overcast Clouds33°C22 mph, S100%10000m1000hPa30%
19-Jun-2024 12:00Broken Clouds27°C13 mph, S84%10000m1002hPa37%
19-Jun-2024 15:00Broken Clouds24°C7 mph, S79%10000m1003hPa31%
19-Jun-2024 18:00Overcast Clouds22°C4 mph, S86%10000m1003hPa43%
19-Jun-2024 21:00Overcast Clouds21°C4 mph, S100%10000m1003hPa52%
20-Jun-2024 00:00Overcast Clouds25°C9 mph, S100%10000m1004hPa42%
20-Jun-2024 03:00Overcast Clouds27°C18 mph, S100%10000m1003hPa39%
20-Jun-2024 06:00Overcast Clouds30°C18 mph, S97%10000m1001hPa39%
20-Jun-2024 09:00Overcast Clouds29°C18 mph, S100%10000m1000hPa46%
20-Jun-2024 12:00Overcast Clouds24°C13 mph, S90%10000m1000hPa69%
20-Jun-2024 15:00Scattered Clouds22°C7 mph, S47%10000m1002hPa75%
20-Jun-2024 18:00Light Rain20°C4 mph, S73%10000m1001hPa80%
20-Jun-2024 21:00Overcast Clouds19°C4 mph, S100%10000m1002hPa78%
21-Jun-2024 00:00Light Rain24°C9 mph, S58%10000m1002hPa66%